createdAt,value
2022-08-25T00:02:14.476Z,6.88
2022-08-25T00:04:43.742Z,6.75
2022-08-25T00:07:12.263Z,6.78
2022-08-25T00:09:45.743Z,5.90
2022-08-25T00:12:12.599Z,6.33
2022-08-25T00:14:39.620Z,6.10
2022-08-25T00:17:06.581Z,5.43
2022-08-25T00:19:34.815Z,5.95
2022-08-25T00:22:01.920Z,6.03
2022-08-25T00:24:28.949Z,6.40
2022-08-25T00:26:57.401Z,5.78
2022-08-25T00:29:26.145Z,5.80
2022-08-25T00:31:53.625Z,5.90
2022-08-25T00:34:34.161Z,5.63
2022-08-25T00:37:01.600Z,5.47
2022-08-25T00:39:28.451Z,5.63
2022-08-25T00:41:56.939Z,5.20
2022-08-25T00:44:24.901Z,6.32
2022-08-25T00:46:53.646Z,5.93
2022-08-25T00:49:27.882Z,5.20
2022-08-25T00:52:02.132Z,5.15
2022-08-25T00:54:32.567Z,4.97
2022-08-25T00:56:59.947Z,6.13
2022-08-25T00:59:27.040Z,5.43
2022-08-25T01:01:54.204Z,6.17
2022-08-25T01:04:21.303Z,5.20
2022-08-25T01:06:48.282Z,5.65
2022-08-25T01:09:15.581Z,6.15
2022-08-25T01:11:42.918Z,5.60
2022-08-25T01:14:09.816Z,5.83
2022-08-25T01:16:38.405Z,6.20
2022-08-25T01:19:09.003Z,5.03
2022-08-25T01:21:44.077Z,5.40
2022-08-25T01:24:12.859Z,5.63
2022-08-25T01:26:39.799Z,5.47
2022-08-25T01:29:26.020Z,5.97
2022-08-25T01:32:00.746Z,5.57
2022-08-25T01:34:32.826Z,6.45
2022-08-25T01:36:59.894Z,6.22
2022-08-25T01:39:27.860Z,6.53
2022-08-25T01:42:06.903Z,6.45
2022-08-25T01:44:36.027Z,6.85
2022-08-25T01:47:03.424Z,6.95
2022-08-25T01:49:30.323Z,6.90
2022-08-25T01:52:01.104Z,7.33
2022-08-25T01:54:27.982Z,7.38
2022-08-25T01:56:55.602Z,6.53
2022-08-25T01:59:24.349Z,6.97
2022-08-25T02:01:52.009Z,7.22
2022-08-25T02:04:29.595Z,7.77
2022-08-25T02:06:56.464Z,7.30
2022-08-25T02:09:23.301Z,7.38
2022-08-25T02:11:50.962Z,7.10
2022-08-25T02:14:18.498Z,7.18
2022-08-25T02:16:47.733Z,7.07
2022-08-25T02:19:15.564Z,7.68
2022-08-25T02:21:42.498Z,8.10
2022-08-25T02:24:09.400Z,8.38
2022-08-25T02:26:36.598Z,7.68
2022-08-25T02:29:03.818Z,8.20
2022-08-25T02:31:30.662Z,7.93
2022-08-25T02:33:57.560Z,7.97
2022-08-25T02:36:24.485Z,8.30
2022-08-25T02:38:51.395Z,8.85
2022-08-25T02:41:21.042Z,9.30
2022-08-25T02:43:48.691Z,9.50
2022-08-25T02:46:16.761Z,9.07
2022-08-25T02:48:43.700Z,9.35
2022-08-25T02:51:10.837Z,9.32
2022-08-25T02:53:41.882Z,9.20
2022-08-25T02:56:11.642Z,9.45
2022-08-25T02:58:39.160Z,10.02
2022-08-25T03:01:06.877Z,9.57
2022-08-25T03:03:38.785Z,9.55
2022-08-25T03:06:09.401Z,9.33
2022-08-25T03:08:37.004Z,9.60
2022-08-25T03:11:04.427Z,9.85
2022-08-25T03:13:32.300Z,9.55
2022-08-25T03:16:00.138Z,9.70
2022-08-25T03:18:27.580Z,8.70
2022-08-25T03:20:55.259Z,9.00
2022-08-25T03:23:22.175Z,8.85
2022-08-25T03:26:07.831Z,8.65
2022-08-25T03:28:34.715Z,8.23
2022-08-25T03:31:01.646Z,8.27
2022-08-25T03:33:29.380Z,7.90
2022-08-25T03:35:56.283Z,7.07
2022-08-25T03:38:23.819Z,7.57
2022-08-25T03:40:51.157Z,7.50
2022-08-25T03:43:18.558Z,6.70
2022-08-25T03:45:45.922Z,7.25
2022-08-25T03:48:12.997Z,7.60
2022-08-25T03:50:50.763Z,7.60
2022-08-25T03:53:19.681Z,7.78
2022-08-25T03:55:46.809Z,8.63
2022-08-25T03:58:13.759Z,7.85
2022-08-25T04:00:40.979Z,8.50
2022-08-25T04:03:07.965Z,9.07
2022-08-25T04:05:35.420Z,9.00
2022-08-25T04:08:02.570Z,8.90
2022-08-25T04:10:31.298Z,9.10
2022-08-25T04:12:58.345Z,9.05
2022-08-25T04:15:28.485Z,8.88
2022-08-25T04:17:59.109Z,9.13
2022-08-25T04:20:26.277Z,8.80
2022-08-25T04:22:53.159Z,9.32
2022-08-25T04:25:20.121Z,8.63
2022-08-25T04:27:46.979Z,8.52
2022-08-25T04:30:14.741Z,8.32
2022-08-25T04:32:41.575Z,7.90
2022-08-25T04:35:09.578Z,7.90
2022-08-25T04:37:36.460Z,7.30
2022-08-25T04:40:04.609Z,7.22
2022-08-25T04:42:31.937Z,7.30
2022-08-25T04:44:59.440Z,7.30
2022-08-25T04:47:26.479Z,6.78
2022-08-25T04:49:55.362Z,6.43
2022-08-25T04:52:22.243Z,6.88
2022-08-25T04:54:49.141Z,7.05
2022-08-25T04:57:15.991Z,6.27
2022-08-25T04:59:42.820Z,7.10
2022-08-25T05:02:09.965Z,6.70
2022-08-25T05:04:37.005Z,6.45
2022-08-25T05:07:04.125Z,6.30
2022-08-25T05:09:32.087Z,6.63
2022-08-25T05:11:59.145Z,6.55
2022-08-25T05:14:26.403Z,6.13
2022-08-25T05:16:54.567Z,6.18
2022-08-25T05:19:21.413Z,6.28
2022-08-25T05:21:48.363Z,5.93
2022-08-25T05:24:15.223Z,5.95
2022-08-25T05:26:43.778Z,5.25
2022-08-25T05:29:11.810Z,5.13
2022-08-25T05:31:43.131Z,5.30
2022-08-25T05:34:12.382Z,5.80
2022-08-25T05:36:43.511Z,5.10
2022-08-25T05:39:11.121Z,5.03
2022-08-25T05:41:38.144Z,5.00
2022-08-25T05:44:05.059Z,5.03
2022-08-25T05:46:32.002Z,4.90
2022-08-25T05:48:59.243Z,5.57
2022-08-25T05:51:26.809Z,4.78
2022-08-25T05:53:54.093Z,5.00
2022-08-25T05:56:20.959Z,5.45
2022-08-25T05:58:48.222Z,5.40
2022-08-25T06:01:45.502Z,5.25
2022-08-25T06:04:13.592Z,5.00
2022-08-25T06:06:40.828Z,5.03
2022-08-25T06:09:08.875Z,5.40
2022-08-25T06:11:40.038Z,5.20
2022-08-25T06:14:10.675Z,5.18
2022-08-25T06:16:39.097Z,4.97
2022-08-25T06:19:06.891Z,5.00
2022-08-25T06:21:33.759Z,5.03
2022-08-25T06:24:01.743Z,4.87
2022-08-25T06:26:28.626Z,5.13
2022-08-25T06:28:55.467Z,5.22
2022-08-25T06:31:22.707Z,5.85
2022-08-25T06:33:49.948Z,4.85
2022-08-25T06:36:17.116Z,5.57
2022-08-25T06:38:44.020Z,5.18
2022-08-25T06:41:10.943Z,5.22
2022-08-25T06:43:38.026Z,5.30
2022-08-25T06:46:21.672Z,5.07
2022-08-25T06:48:49.067Z,5.23
2022-08-25T06:51:18.140Z,5.10
2022-08-25T06:53:46.482Z,5.75
2022-08-25T06:56:13.488Z,5.28
2022-08-25T06:58:40.523Z,5.97
2022-08-25T07:01:19.819Z,5.67
2022-08-25T07:03:47.581Z,5.05
2022-08-25T07:06:15.209Z,5.25
2022-08-25T07:08:46.242Z,6.03
2022-08-25T07:11:16.340Z,6.40
2022-08-25T07:13:44.595Z,6.17
2022-08-25T07:16:11.673Z,6.13
2022-08-25T07:18:38.641Z,5.43
2022-08-25T07:21:05.933Z,5.95
2022-08-25T07:23:36.123Z,5.30
2022-08-25T07:29:01.366Z,5.63
2022-08-25T07:34:33.424Z,6.00
2022-08-25T07:37:05.289Z,6.65
2022-08-25T07:39:33.821Z,5.67
2022-08-25T07:42:00.942Z,6.20
2022-08-25T07:44:28.799Z,6.13
2022-08-25T07:46:55.710Z,6.22
2022-08-25T07:49:23.736Z,6.45
2022-08-25T07:52:05.360Z,6.23
2022-08-25T07:54:35.251Z,6.28
2022-08-25T07:57:06.260Z,6.68
2022-08-25T07:59:39.692Z,6.50
2022-08-25T08:02:17.836Z,7.07
2022-08-25T08:04:49.311Z,6.13
2022-08-25T08:07:41.824Z,6.10
2022-08-25T08:10:47.854Z,6.32
2022-08-25T08:12:57.522Z,7.78
2022-08-25T08:15:24.490Z,7.57
2022-08-25T08:17:52.867Z,7.30
2022-08-25T08:20:23.404Z,7.45
2022-08-25T08:22:50.682Z,6.80
2022-08-25T08:25:21.311Z,6.53
2022-08-25T08:27:48.924Z,8.48
2022-08-25T08:30:18.167Z,7.17
2022-08-25T08:33:08.564Z,7.30
2022-08-25T08:35:32.514Z,7.07
2022-08-25T08:37:59.441Z,7.75
2022-08-25T08:40:26.457Z,9.18
2022-08-25T08:43:02.637Z,9.03
2022-08-25T08:45:44.561Z,10.93
2022-08-25T08:48:33.132Z,11.43
2022-08-25T08:51:23.106Z,11.98
2022-08-25T08:54:16.630Z,10.75
2022-08-25T08:57:00.825Z,10.47
2022-08-25T08:59:31.021Z,10.88
2022-08-25T09:02:02.015Z,11.15
2022-08-25T09:05:01.542Z,12.80
2022-08-25T09:07:48.699Z,12.30
2022-08-25T09:10:21.566Z,13.50
2022-08-25T09:13:27.308Z,12.45
2022-08-25T09:16:14.144Z,12.77
2022-08-25T09:19:08.602Z,13.05
2022-08-25T09:21:53.660Z,12.38
2022-08-25T09:24:38.706Z,11.90
2022-08-25T09:27:36.042Z,13.55
2022-08-25T09:30:11.702Z,12.70
2022-08-25T09:32:52.229Z,13.35
2022-08-25T09:35:19.715Z,13.02
2022-08-25T09:38:00.206Z,12.77
2022-08-25T09:40:28.778Z,11.38
2022-08-25T09:42:57.871Z,12.48
2022-08-25T09:45:44.510Z,13.60
2022-08-25T09:48:40.773Z,12.63
2022-08-25T09:51:21.958Z,12.30
2022-08-25T09:53:56.959Z,12.30
2022-08-25T09:56:26.122Z,12.77
2022-08-25T09:58:53.007Z,12.43
2022-08-25T10:01:22.544Z,11.93
2022-08-25T10:04:00.964Z,12.70
2022-08-25T10:06:30.440Z,12.60
2022-08-25T10:08:59.800Z,12.50
2022-08-25T10:11:37.566Z,12.18
2022-08-25T10:14:16.423Z,11.90
2022-08-25T10:16:46.830Z,11.77
2022-08-25T10:19:21.881Z,12.57
2022-08-25T10:22:34.559Z,11.85
2022-08-25T10:25:01.652Z,11.52
2022-08-25T10:27:41.338Z,10.90
2022-08-25T10:30:31.401Z,10.50
2022-08-25T10:33:01.300Z,10.73
2022-08-25T10:36:00.231Z,10.23
2022-08-25T10:38:37.316Z,10.30
2022-08-25T10:41:04.141Z,9.50
2022-08-25T10:43:44.260Z,10.23
2022-08-25T10:46:23.671Z,9.15
2022-08-25T10:48:59.473Z,9.38
2022-08-25T10:51:51.149Z,9.82
2022-08-25T10:54:23.952Z,9.18
2022-08-25T10:57:10.598Z,9.17
2022-08-25T11:00:05.962Z,9.30
2022-08-25T11:02:51.422Z,8.68
2022-08-25T11:05:55.652Z,8.88
2022-08-25T11:08:28.601Z,9.23
2022-08-25T11:11:06.497Z,8.60
2022-08-25T11:13:43.323Z,8.43
2022-08-25T11:16:34.123Z,8.93
2022-08-25T11:19:33.818Z,8.10
2022-08-25T11:22:10.362Z,8.80
2022-08-25T11:24:43.540Z,8.57
2022-08-25T11:27:15.841Z,8.35
2022-08-25T11:29:48.143Z,8.35
2022-08-25T11:32:17.541Z,8.25
2022-08-25T11:34:44.400Z,7.70
2022-08-25T11:37:59.022Z,8.97
2022-08-25T11:40:50.447Z,8.45
2022-08-25T11:43:54.818Z,7.78
2022-08-25T11:46:32.112Z,8.85
2022-08-25T11:49:21.838Z,7.75
2022-08-25T11:51:49.667Z,8.20
2022-08-25T11:54:18.363Z,8.18
2022-08-25T11:57:02.744Z,8.15
2022-08-25T11:59:55.841Z,7.68
2022-08-25T12:02:42.747Z,7.88
2022-08-25T12:05:29.848Z,7.53
2022-08-25T12:08:22.281Z,7.20
2022-08-25T12:11:01.261Z,7.22
2022-08-25T12:13:50.877Z,7.20
2022-08-25T12:16:36.485Z,7.30
2022-08-25T12:19:26.327Z,8.07
2022-08-25T12:21:58.879Z,7.88
2022-08-25T12:24:47.653Z,8.05
2022-08-25T12:27:34.150Z,7.30
2022-08-25T12:30:21.473Z,7.45
2022-08-25T12:33:17.021Z,7.80
2022-08-25T12:36:02.698Z,8.77
2022-08-25T12:38:53.063Z,8.30
2022-08-25T12:41:26.601Z,8.75
2022-08-25T12:43:54.714Z,8.93
2022-08-25T12:46:27.664Z,8.57
2022-08-25T12:48:58.619Z,8.48
2022-08-25T12:51:27.477Z,8.70
2022-08-25T12:54:15.972Z,8.10
2022-08-25T12:56:56.664Z,8.48
2022-08-25T12:59:38.146Z,8.53
2022-08-25T13:02:31.474Z,7.95
2022-08-25T13:05:40.680Z,9.25
2022-08-25T13:08:19.446Z,10.20
2022-08-25T13:10:51.262Z,11.00
2022-08-25T13:13:42.779Z,10.67
2022-08-25T13:16:15.949Z,12.02
2022-08-25T13:18:42.819Z,10.52
2022-08-25T13:21:33.761Z,10.90
2022-08-25T13:24:05.154Z,10.00
2022-08-25T13:26:35.161Z,10.50
2022-08-25T13:29:09.290Z,10.20
2022-08-25T13:31:38.472Z,9.90
2022-08-25T13:34:19.449Z,10.30
2022-08-25T13:37:06.424Z,10.48
2022-08-25T13:39:54.867Z,10.47
2022-08-25T13:42:27.429Z,10.00
2022-08-25T13:44:56.004Z,10.05
2022-08-25T13:47:45.175Z,9.13
2022-08-25T13:50:21.463Z,9.07
2022-08-25T13:52:53.917Z,9.20
2022-08-25T13:55:23.378Z,9.77
2022-08-25T13:57:55.456Z,9.80
2022-08-25T14:00:45.385Z,9.95
2022-08-25T14:03:32.219Z,9.10
2022-08-25T14:06:23.547Z,8.83
2022-08-25T14:08:59.363Z,8.88
2022-08-25T14:11:47.879Z,9.50
2022-08-25T14:14:23.941Z,9.43
2022-08-25T14:16:54.427Z,10.52
2022-08-25T14:19:25.171Z,10.40
2022-08-25T14:21:56.630Z,10.57
2022-08-25T14:24:23.882Z,10.77
2022-08-25T14:26:53.914Z,11.07
2022-08-25T14:29:22.245Z,11.23
2022-08-25T14:31:49.332Z,11.17
2022-08-25T14:34:18.267Z,10.68
2022-08-25T14:36:48.405Z,10.43
2022-08-25T14:39:15.457Z,11.35
2022-08-25T14:41:43.660Z,11.32
2022-08-25T14:44:11.466Z,11.77
2022-08-25T14:46:43.041Z,12.50
2022-08-25T14:49:12.509Z,11.48
2022-08-25T14:51:40.404Z,11.85
2022-08-25T14:54:08.127Z,11.45
2022-08-25T14:56:35.779Z,11.47
2022-08-25T14:59:03.064Z,11.93
2022-08-25T15:01:31.961Z,11.35
2022-08-25T15:04:05.855Z,11.63
2022-08-25T15:06:34.384Z,12.27
2022-08-25T15:09:13.730Z,11.93
2022-08-25T15:11:46.024Z,12.63
2022-08-25T15:14:15.612Z,12.35
2022-08-25T15:16:48.049Z,12.02
2022-08-25T15:19:17.121Z,12.13
2022-08-25T15:21:44.891Z,11.93
2022-08-25T15:24:11.999Z,11.02
2022-08-25T15:29:23.060Z,11.88
2022-08-25T15:31:50.283Z,11.55
2022-08-25T15:34:17.640Z,11.77
2022-08-25T15:36:46.710Z,12.35
2022-08-25T15:39:14.488Z,11.70
2022-08-25T15:41:42.720Z,11.20
2022-08-25T15:44:11.464Z,10.88
2022-08-25T15:46:40.110Z,11.37
2022-08-25T15:49:07.835Z,9.35
2022-08-25T15:51:35.040Z,9.80
2022-08-25T15:54:01.997Z,8.88
2022-08-25T15:56:28.908Z,9.60
2022-08-25T15:58:55.922Z,9.73
2022-08-25T16:01:26.861Z,9.10
2022-08-25T16:03:54.039Z,9.63
2022-08-25T16:06:21.124Z,8.70
2022-08-25T16:08:48.365Z,9.07
2022-08-25T16:11:18.799Z,8.20
2022-08-25T16:13:47.684Z,8.88
2022-08-25T16:16:15.976Z,8.80
2022-08-25T16:18:43.904Z,8.95
2022-08-25T16:21:12.533Z,9.13
2022-08-25T16:23:40.135Z,9.30
2022-08-25T16:26:09.105Z,8.52
2022-08-25T16:28:37.740Z,8.80
2022-08-25T16:31:05.161Z,8.20
2022-08-25T16:33:33.801Z,9.10
2022-08-25T16:36:17.539Z,9.57
2022-08-25T16:38:49.046Z,9.73
2022-08-25T16:41:22.444Z,8.40
2022-08-25T16:43:49.355Z,9.43
2022-08-25T16:46:17.410Z,8.63
2022-08-25T16:48:44.523Z,9.80
2022-08-25T16:51:16.019Z,9.75
2022-08-25T16:54:04.590Z,8.80
2022-08-25T16:56:34.299Z,9.20
2022-08-25T16:59:01.761Z,8.40
2022-08-25T17:01:29.563Z,9.93
2022-08-25T17:03:57.791Z,9.55
2022-08-25T17:06:27.312Z,9.27
2022-08-25T17:08:54.240Z,10.25
2022-08-25T17:11:27.963Z,9.88
2022-08-25T17:13:57.022Z,9.10
2022-08-25T17:16:29.986Z,9.40
2022-08-25T17:18:59.608Z,10.02
2022-08-25T17:21:28.261Z,10.57
2022-08-25T17:23:55.869Z,9.57
2022-08-25T17:26:27.522Z,9.33
2022-08-25T17:28:55.143Z,10.20
2022-08-25T17:31:24.097Z,10.27
2022-08-25T17:33:52.391Z,10.85
2022-08-25T17:36:19.411Z,10.00
2022-08-25T17:38:46.499Z,10.30
2022-08-25T17:41:14.985Z,10.15
2022-08-25T17:43:43.448Z,10.38
2022-08-25T17:46:10.782Z,10.43
2022-08-25T17:48:38.161Z,9.82
2022-08-25T17:51:10.958Z,10.90
2022-08-25T17:53:38.631Z,11.85
2022-08-25T17:56:08.475Z,10.70
2022-08-25T17:58:35.641Z,10.85
2022-08-25T18:01:03.240Z,10.98
2022-08-25T18:03:30.146Z,10.80
2022-08-25T18:05:57.903Z,10.40
2022-08-25T18:08:29.253Z,10.93
2022-08-25T18:11:03.255Z,11.18
2022-08-25T18:13:31.613Z,11.32
2022-08-25T18:15:58.940Z,10.63
2022-08-25T18:18:25.831Z,10.73
2022-08-25T18:20:52.801Z,10.43
2022-08-25T18:23:19.895Z,10.98
2022-08-25T18:25:48.461Z,10.35
2022-08-25T18:28:15.558Z,10.40
2022-08-25T18:30:42.563Z,10.48
2022-08-25T18:33:09.842Z,12.00
2022-08-25T18:35:36.725Z,11.48
2022-08-25T18:38:24.481Z,11.35
2022-08-25T18:40:56.439Z,12.50
2022-08-25T18:43:23.265Z,12.90
2022-08-25T18:45:50.251Z,11.82
2022-08-25T18:48:18.083Z,12.52
2022-08-25T18:50:46.908Z,11.65
2022-08-25T18:53:18.137Z,12.80
2022-08-25T18:55:58.202Z,13.25
2022-08-25T18:58:25.758Z,12.65
2022-08-25T19:00:53.282Z,13.85
2022-08-25T19:03:22.464Z,13.77
2022-08-25T19:05:57.267Z,15.20
2022-08-25T19:08:24.692Z,14.32
2022-08-25T19:10:52.845Z,15.20
2022-08-25T19:13:22.815Z,14.80
2022-08-25T19:15:50.238Z,15.80
2022-08-25T19:18:18.573Z,15.43
2022-08-25T19:20:45.702Z,15.90
2022-08-25T19:23:13.164Z,15.48
2022-08-25T19:25:41.736Z,15.75
2022-08-25T19:28:11.971Z,16.23
2022-08-25T19:30:39.424Z,16.30
2022-08-25T19:33:42.002Z,16.48
2022-08-25T19:36:04.019Z,17.08
2022-08-25T19:38:34.182Z,16.77
2022-08-25T19:41:10.758Z,16.60
2022-08-25T19:43:55.266Z,16.63
2022-08-25T19:46:32.353Z,16.33
2022-08-25T19:49:08.132Z,16.40
2022-08-25T19:51:37.257Z,16.02
2022-08-25T19:54:04.516Z,16.48
2022-08-25T19:56:32.548Z,16.07
2022-08-25T19:59:00.072Z,16.63
2022-08-25T20:01:27.098Z,16.27
2022-08-25T20:03:55.266Z,16.40
2022-08-25T20:06:23.948Z,15.32
2022-08-25T20:08:58.777Z,15.80
2022-08-25T20:11:27.147Z,15.02
2022-08-25T20:13:54.229Z,14.55
2022-08-25T20:16:21.398Z,14.00
2022-08-25T20:18:48.356Z,13.93
2022-08-25T20:21:15.225Z,13.87
2022-08-25T20:24:00.799Z,14.57
2022-08-25T20:26:29.251Z,13.00
2022-08-25T20:28:56.971Z,13.85
2022-08-25T20:31:23.958Z,13.88
2022-08-25T20:33:50.799Z,12.90
2022-08-25T20:36:19.355Z,13.60
2022-08-25T20:38:46.249Z,12.95
2022-08-25T20:41:13.283Z,14.23
2022-08-25T20:43:40.647Z,13.25
2022-08-25T20:46:07.834Z,13.10
2022-08-25T20:48:34.911Z,13.57
2022-08-25T20:51:08.567Z,14.68
2022-08-25T20:53:36.420Z,13.27
2022-08-25T20:56:10.709Z,13.13
2022-08-25T20:58:38.791Z,14.77
2022-08-25T21:01:22.857Z,14.25
2022-08-25T21:03:50.579Z,14.25
2022-08-25T21:06:17.791Z,13.15
2022-08-25T21:08:46.636Z,13.63
2022-08-25T21:11:15.562Z,13.60
2022-08-25T21:13:42.435Z,13.27
2022-08-25T21:16:09.345Z,13.63
2022-08-25T21:18:36.351Z,13.05
2022-08-25T21:21:12.493Z,14.23
2022-08-25T21:23:39.437Z,13.33
2022-08-25T21:26:06.546Z,14.02
2022-08-25T21:28:34.879Z,13.15
2022-08-25T21:31:02.343Z,13.98
2022-08-25T21:33:31.300Z,14.60
2022-08-25T21:35:58.157Z,14.20
2022-08-25T21:38:25.049Z,14.95
2022-08-25T21:40:51.896Z,15.18
2022-08-25T21:43:18.762Z,15.52
2022-08-25T21:45:47.168Z,14.55
2022-08-25T21:48:14.472Z,15.57
2022-08-25T21:50:41.275Z,14.48
2022-08-25T21:53:09.362Z,14.73
2022-08-25T21:55:39.865Z,15.85
2022-08-25T21:58:08.829Z,15.07
2022-08-25T22:00:36.111Z,14.63
2022-08-25T22:03:03.086Z,14.25
2022-08-25T22:05:30.067Z,14.43
2022-08-25T22:07:57.002Z,15.18
2022-08-25T22:10:23.931Z,15.13
2022-08-25T22:12:50.776Z,14.53
2022-08-25T22:15:18.370Z,15.43
2022-08-25T22:17:48.175Z,15.00
2022-08-25T22:20:15.938Z,15.30
2022-08-25T22:22:42.930Z,14.80
2022-08-25T22:25:10.435Z,14.73
2022-08-25T22:27:37.415Z,16.38
2022-08-25T22:30:06.133Z,15.32
2022-08-25T22:32:33.150Z,15.15
2022-08-25T22:35:00.055Z,15.35
2022-08-25T22:37:26.916Z,15.67
2022-08-25T22:39:57.366Z,14.55
2022-08-25T22:42:25.590Z,14.68
2022-08-25T22:44:53.986Z,14.40
2022-08-25T22:47:20.991Z,15.20
2022-08-25T22:49:48.758Z,15.77
2022-08-25T22:52:15.732Z,16.00
2022-08-25T22:54:42.589Z,15.68
2022-08-25T22:57:10.253Z,15.68
2022-08-25T22:59:37.288Z,15.38
2022-08-25T23:02:05.464Z,14.30
2022-08-25T23:04:33.588Z,13.90
2022-08-25T23:07:00.550Z,13.70
2022-08-25T23:09:27.461Z,14.18
2022-08-25T23:11:54.371Z,15.73
2022-08-25T23:14:21.720Z,14.63
2022-08-25T23:16:49.994Z,15.80
2022-08-25T23:19:17.630Z,15.02
2022-08-25T23:22:02.823Z,16.25
2022-08-25T23:24:30.864Z,14.80
2022-08-25T23:27:01.580Z,14.50
2022-08-25T23:29:29.160Z,15.18
2022-08-25T23:31:56.450Z,16.90
2022-08-25T23:34:23.631Z,16.95
2022-08-25T23:36:50.734Z,16.48
2022-08-25T23:39:17.578Z,16.07
2022-08-25T23:41:44.627Z,15.60
2022-08-25T23:44:17.521Z,15.63
2022-08-25T23:46:47.303Z,16.27
2022-08-25T23:49:18.566Z,17.63
2022-08-25T23:51:46.649Z,16.97
2022-08-25T23:54:13.734Z,16.98
2022-08-25T23:56:42.484Z,16.58
2022-08-25T23:59:19.475Z,16.75
